createdAt,value
2019-03-26T00:01:19.901Z,76.62
2019-03-26T00:03:49.591Z,76.27
2019-03-26T00:06:19.271Z,75.91
2019-03-26T00:08:48.997Z,75.58
2019-03-26T00:11:18.684Z,75.55
2019-03-26T00:13:48.426Z,75.66
2019-03-26T00:16:18.363Z,75.09
2019-03-26T00:18:48.049Z,75.18
2019-03-26T00:21:17.741Z,74.90
2019-03-26T00:23:47.708Z,74.03
2019-03-26T00:26:17.533Z,73.79
2019-03-26T00:28:47.254Z,73.73
2019-03-26T00:31:16.946Z,73.31
2019-03-26T00:33:46.724Z,73.69
2019-03-26T00:36:16.433Z,73.54
2019-03-26T00:38:46.258Z,73.60
2019-03-26T00:41:15.923Z,73.89
2019-03-26T00:43:45.609Z,72.71
2019-03-26T00:46:15.316Z,71.73
2019-03-26T00:48:44.987Z,72.02
2019-03-26T00:51:14.661Z,72.22
2019-03-26T00:53:44.388Z,71.97
2019-03-26T00:56:14.053Z,70.19
2019-03-26T00:58:43.751Z,69.44
2019-03-26T01:01:13.747Z,69.30
2019-03-26T01:03:43.421Z,69.32
2019-03-26T01:06:13.101Z,69.87
2019-03-26T01:08:42.812Z,69.94
2019-03-26T01:11:12.478Z,69.84
2019-03-26T01:13:42.189Z,69.97
2019-03-26T01:16:11.896Z,69.84
2019-03-26T01:18:41.582Z,69.62
2019-03-26T01:21:11.368Z,70.00
2019-03-26T01:23:41.208Z,70.24
2019-03-26T01:26:10.938Z,70.13
2019-03-26T01:28:40.630Z,70.43
2019-03-26T01:31:10.309Z,69.50
2019-03-26T01:33:40.059Z,69.69
2019-03-26T01:36:09.858Z,70.25
2019-03-26T01:38:39.731Z,70.04
2019-03-26T01:41:09.490Z,69.95
2019-03-26T01:43:39.372Z,70.11
2019-03-26T01:46:09.114Z,70.14
2019-03-26T01:48:38.937Z,69.57
2019-03-26T01:51:08.610Z,69.32
2019-03-26T01:53:38.299Z,69.92
2019-03-26T01:56:08.048Z,70.12
2019-03-26T01:58:37.722Z,69.23
2019-03-26T02:01:07.413Z,68.89
2019-03-26T02:03:37.147Z,68.91
2019-03-26T02:06:06.884Z,68.87
2019-03-26T02:08:36.559Z,67.00
2019-03-26T02:11:06.333Z,66.55
2019-03-26T02:13:35.998Z,66.90
2019-03-26T02:16:05.834Z,66.93
2019-03-26T02:18:35.538Z,66.74
2019-03-26T02:21:05.697Z,66.04
2019-03-26T02:23:35.392Z,66.33
2019-03-26T02:26:05.070Z,66.72
2019-03-26T02:28:34.785Z,66.74
2019-03-26T02:31:04.443Z,66.92
2019-03-26T02:33:34.111Z,67.29
2019-03-26T02:36:03.838Z,67.47
2019-03-26T02:38:33.555Z,67.97
2019-03-26T02:41:03.250Z,68.89
2019-03-26T02:43:32.941Z,67.93
2019-03-26T02:46:02.893Z,66.19
2019-03-26T02:48:32.616Z,65.55
2019-03-26T02:51:02.444Z,65.51
2019-03-26T02:53:32.177Z,64.58
2019-03-26T02:56:02.449Z,63.70
2019-03-26T02:58:32.166Z,63.98
2019-03-26T03:01:01.851Z,62.82
2019-03-26T03:03:31.571Z,63.31
2019-03-26T03:06:01.243Z,62.54
2019-03-26T03:08:31.283Z,63.80
2019-03-26T03:11:00.943Z,64.01
2019-03-26T03:13:30.630Z,64.08
2019-03-26T03:16:00.353Z,64.01
2019-03-26T03:18:30.095Z,63.77
2019-03-26T03:20:59.843Z,64.15
2019-03-26T03:23:29.550Z,64.05
2019-03-26T03:25:59.220Z,64.32
2019-03-26T03:28:28.944Z,64.07
2019-03-26T03:30:58.710Z,64.17
2019-03-26T03:33:28.953Z,64.59
2019-03-26T03:35:59.014Z,65.27
2019-03-26T03:38:28.695Z,65.34
2019-03-26T03:40:58.398Z,65.33
2019-03-26T03:43:28.103Z,66.61
2019-03-26T03:45:57.770Z,65.96
2019-03-26T03:48:27.582Z,66.61
2019-03-26T03:50:57.928Z,67.25
2019-03-26T03:53:27.685Z,66.63
2019-03-26T03:55:58.194Z,66.53
2019-03-26T03:58:28.597Z,66.58
2019-03-26T04:00:58.391Z,65.95
2019-03-26T04:03:28.075Z,66.58
2019-03-26T04:06:08.851Z,67.55
2019-03-26T04:08:29.236Z,67.26
2019-03-26T04:10:58.972Z,67.32
2019-03-26T04:13:28.715Z,67.18
2019-03-26T04:15:58.429Z,67.39
2019-03-26T04:18:28.141Z,66.70
2019-03-26T04:20:58.175Z,66.26
2019-03-26T04:23:27.907Z,66.61
2019-03-26T04:25:57.596Z,66.40
2019-03-26T04:28:27.326Z,66.83
2019-03-26T04:30:56.996Z,66.74
2019-03-26T04:33:26.696Z,66.89
2019-03-26T04:35:56.546Z,66.98
2019-03-26T04:38:26.285Z,67.27
2019-03-26T04:40:56.611Z,67.29
2019-03-26T04:43:26.426Z,67.19
2019-03-26T04:45:56.130Z,67.22
2019-03-26T04:48:25.821Z,67.67
2019-03-26T04:50:55.562Z,67.96
2019-03-26T04:53:25.265Z,68.35
2019-03-26T04:55:55.004Z,67.81
2019-03-26T04:58:24.706Z,68.72
2019-03-26T05:00:54.598Z,67.68
2019-03-26T05:03:24.352Z,67.60
2019-03-26T05:05:54.060Z,67.98
2019-03-26T05:08:23.805Z,67.96
2019-03-26T05:10:53.486Z,67.76
2019-03-26T05:13:23.212Z,67.70
2019-03-26T05:15:52.927Z,67.75
2019-03-26T05:18:22.609Z,68.66
2019-03-26T05:20:52.312Z,68.63
2019-03-26T05:23:22.052Z,67.97
2019-03-26T05:25:55.115Z,68.65
2019-03-26T05:28:24.808Z,68.82
2019-03-26T05:30:54.554Z,69.46
2019-03-26T05:33:24.323Z,69.48
2019-03-26T05:35:54.102Z,69.73
2019-03-26T05:38:23.811Z,69.72
2019-03-26T05:40:53.614Z,69.93
2019-03-26T05:43:23.455Z,70.51
2019-03-26T05:45:53.126Z,70.77
2019-03-26T05:48:22.967Z,70.77
2019-03-26T05:50:52.648Z,70.28
2019-03-26T05:53:22.346Z,70.74
2019-03-26T05:55:52.230Z,70.51
2019-03-26T05:58:21.946Z,71.33
2019-03-26T06:00:51.677Z,71.35
2019-03-26T06:03:21.392Z,70.87
2019-03-26T06:05:51.692Z,71.10
2019-03-26T06:08:21.392Z,71.06
2019-03-26T06:10:51.064Z,70.82
2019-03-26T06:13:20.791Z,71.00
2019-03-26T06:15:50.484Z,71.25
2019-03-26T06:18:20.211Z,71.01
2019-03-26T06:20:49.920Z,70.51
2019-03-26T06:23:19.819Z,70.52
2019-03-26T06:25:49.542Z,70.64
2019-03-26T06:28:19.258Z,70.73
2019-03-26T06:30:49.049Z,70.61
2019-03-26T06:33:18.871Z,70.81
2019-03-26T06:35:48.546Z,70.91
2019-03-26T06:38:18.283Z,71.15
2019-03-26T06:40:48.064Z,70.84
2019-03-26T06:43:17.755Z,70.82
2019-03-26T06:45:47.463Z,71.45
2019-03-26T06:48:17.244Z,71.79
2019-03-26T06:50:46.981Z,71.55
2019-03-26T06:53:16.662Z,72.46
2019-03-26T06:55:46.338Z,71.96
2019-03-26T06:58:16.059Z,71.50
2019-03-26T07:00:45.735Z,71.50
2019-03-26T07:03:15.473Z,70.85
2019-03-26T07:05:45.161Z,70.37
2019-03-26T07:08:15.111Z,70.65
2019-03-26T07:10:44.899Z,70.47
2019-03-26T07:13:14.592Z,70.08
2019-03-26T07:15:44.612Z,70.67
2019-03-26T07:18:14.357Z,70.19
2019-03-26T07:20:44.032Z,70.39
2019-03-26T07:23:13.766Z,69.70
2019-03-26T07:25:43.428Z,69.34
2019-03-26T07:28:13.209Z,69.77
2019-03-26T07:30:45.852Z,69.54
2019-03-26T07:33:15.650Z,70.54
2019-03-26T07:35:45.402Z,70.26
2019-03-26T07:38:15.109Z,70.57
2019-03-26T07:40:44.910Z,69.82
2019-03-26T07:43:14.686Z,69.40
2019-03-26T07:45:44.393Z,70.02
2019-03-26T07:48:14.147Z,68.85
2019-03-26T07:50:43.902Z,68.89
2019-03-26T07:53:13.581Z,68.96
2019-03-26T07:55:44.555Z,67.44
2019-03-26T07:58:14.440Z,67.03
2019-03-26T08:00:44.139Z,66.80
2019-03-26T08:03:14.003Z,67.74
2019-03-26T08:05:44.072Z,67.58
2019-03-26T08:08:13.757Z,66.72
2019-03-26T08:10:43.452Z,66.95
2019-03-26T08:13:13.261Z,67.43
2019-03-26T08:15:42.986Z,67.30
2019-03-26T08:18:12.704Z,68.33
2019-03-26T08:20:42.512Z,68.40
2019-03-26T08:23:12.197Z,67.25
2019-03-26T08:25:42.155Z,68.27
2019-03-26T08:28:11.832Z,68.02
2019-03-26T08:30:41.625Z,68.18
2019-03-26T08:33:11.344Z,67.86
2019-03-26T08:35:41.062Z,67.71
2019-03-26T08:38:12.873Z,67.33
2019-03-26T08:40:42.164Z,67.91
2019-03-26T08:43:11.897Z,68.83
2019-03-26T08:45:41.621Z,67.03
2019-03-26T08:48:11.397Z,67.11
2019-03-26T08:50:41.153Z,66.76
2019-03-26T08:53:11.049Z,66.32
2019-03-26T08:55:40.756Z,65.90
2019-03-26T08:58:10.509Z,66.67
2019-03-26T09:00:40.330Z,66.86
2019-03-26T09:03:10.045Z,66.50
2019-03-26T09:05:39.960Z,65.99
2019-03-26T09:08:09.707Z,66.56
2019-03-26T09:10:51.196Z,67.05
2019-03-26T09:13:11.056Z,67.21
2019-03-26T09:15:40.789Z,66.36
2019-03-26T09:18:10.476Z,65.47
2019-03-26T09:20:40.398Z,64.06
2019-03-26T09:23:12.299Z,64.18
2019-03-26T09:25:41.490Z,64.78
2019-03-26T09:28:11.248Z,63.69
2019-03-26T09:30:40.954Z,63.87
2019-03-26T09:33:10.725Z,64.96
2019-03-26T09:35:40.430Z,65.05
2019-03-26T09:38:10.125Z,65.34
2019-03-26T09:40:39.898Z,64.69
2019-03-26T09:43:09.660Z,64.94
2019-03-26T09:45:39.371Z,64.91
2019-03-26T09:48:09.124Z,64.68
2019-03-26T09:50:38.907Z,64.76
2019-03-26T09:53:08.593Z,66.45
2019-03-26T09:55:38.719Z,69.60
2019-03-26T09:58:08.507Z,70.32
2019-03-26T10:00:38.249Z,72.17
2019-03-26T10:03:08.347Z,72.87
2019-03-26T10:05:38.069Z,73.34
2019-03-26T10:08:07.813Z,71.70
2019-03-26T10:10:37.688Z,72.99
2019-03-26T10:13:07.520Z,73.32
2019-03-26T10:15:37.206Z,73.88
2019-03-26T10:18:07.328Z,74.85
2019-03-26T10:20:37.127Z,75.08
2019-03-26T10:23:07.074Z,74.18
2019-03-26T10:25:36.800Z,73.71
2019-03-26T10:28:06.529Z,73.65
2019-03-26T10:30:38.218Z,74.04
2019-03-26T10:33:08.946Z,73.89
2019-03-26T10:35:38.679Z,73.38
2019-03-26T10:38:08.367Z,72.77
2019-03-26T10:40:38.316Z,72.97
2019-03-26T10:43:08.065Z,73.34
2019-03-26T10:45:37.778Z,73.31
2019-03-26T10:48:07.610Z,72.86
2019-03-26T10:50:37.488Z,72.33
2019-03-26T10:53:07.250Z,71.99
2019-03-26T10:55:37.203Z,72.31
2019-03-26T10:58:06.973Z,71.56
2019-03-26T11:00:36.778Z,71.24
2019-03-26T11:03:06.552Z,71.30
2019-03-26T11:05:36.320Z,70.73
2019-03-26T11:08:06.100Z,69.83
2019-03-26T11:10:36.089Z,69.55
2019-03-26T11:13:05.784Z,70.19
2019-03-26T11:15:35.501Z,69.85
2019-03-26T11:18:05.208Z,70.04
2019-03-26T11:20:34.944Z,70.76
2019-03-26T11:23:04.660Z,71.33
2019-03-26T11:25:34.518Z,73.14
2019-03-26T11:28:04.258Z,73.65
2019-03-26T11:30:33.931Z,75.16
2019-03-26T11:33:03.681Z,74.33
2019-03-26T11:35:33.353Z,73.17
2019-03-26T11:38:03.071Z,73.16
2019-03-26T11:40:32.827Z,73.02
2019-03-26T11:43:02.538Z,73.16
2019-03-26T11:45:32.242Z,73.56
2019-03-26T11:48:02.721Z,73.54
2019-03-26T11:50:32.503Z,72.82
2019-03-26T11:53:02.266Z,72.19
2019-03-26T11:55:31.939Z,70.51
2019-03-26T11:58:02.144Z,69.97
2019-03-26T12:00:34.823Z,67.14
2019-03-26T12:03:04.497Z,68.57
2019-03-26T12:05:34.208Z,66.96
2019-03-26T12:08:03.871Z,66.38
2019-03-26T12:10:33.681Z,67.05
2019-03-26T12:13:03.627Z,67.73
2019-03-26T12:15:33.395Z,66.85
2019-03-26T12:18:03.102Z,67.22
2019-03-26T12:20:32.824Z,67.87
2019-03-26T12:23:03.058Z,67.35
2019-03-26T12:25:32.788Z,67.14
2019-03-26T12:28:02.469Z,66.80
2019-03-26T12:30:41.759Z,67.20
2019-03-26T12:33:11.643Z,67.99
2019-03-26T12:35:41.391Z,67.09
2019-03-26T12:38:18.753Z,66.86
2019-03-26T12:40:48.801Z,66.72
2019-03-26T12:43:18.789Z,67.62
2019-03-26T12:45:48.544Z,67.16
2019-03-26T12:48:18.373Z,67.26
2019-03-26T12:50:48.148Z,68.32
2019-03-26T12:53:17.911Z,68.38
2019-03-26T12:55:47.751Z,68.71
2019-03-26T12:58:30.652Z,67.94
2019-03-26T13:00:49.093Z,66.39
2019-03-26T13:03:18.829Z,66.36
2019-03-26T13:05:48.776Z,65.90
2019-03-26T13:08:18.505Z,67.05
2019-03-26T13:10:53.913Z,66.51
2019-03-26T13:13:19.649Z,66.46
2019-03-26T13:15:49.504Z,66.20
2019-03-26T13:18:19.204Z,66.62
2019-03-26T13:20:48.952Z,66.99
2019-03-26T13:23:18.642Z,67.08
2019-03-26T13:25:48.377Z,66.88
2019-03-26T13:28:18.181Z,66.48
2019-03-26T13:30:47.901Z,66.21
2019-03-26T13:33:17.748Z,65.15
2019-03-26T13:35:47.514Z,64.58
2019-03-26T13:38:17.205Z,64.15
2019-03-26T13:40:47.022Z,64.51
2019-03-26T13:43:16.745Z,63.98
2019-03-26T13:45:46.461Z,64.43
2019-03-26T13:48:16.303Z,64.92
2019-03-26T13:50:46.071Z,65.62
2019-03-26T13:53:15.807Z,66.21
2019-03-26T13:55:45.604Z,65.76
2019-03-26T13:58:15.473Z,66.60
2019-03-26T14:00:46.693Z,65.28
2019-03-26T14:03:16.377Z,64.19
2019-03-26T14:05:46.235Z,64.55
2019-03-26T14:08:15.965Z,64.54
2019-03-26T14:10:45.772Z,64.00
2019-03-26T14:13:15.465Z,64.09
2019-03-26T14:15:45.171Z,65.75
2019-03-26T14:18:15.181Z,67.77
2019-03-26T14:20:44.889Z,67.50
2019-03-26T14:23:14.590Z,67.79
2019-03-26T14:25:44.317Z,67.07
2019-03-26T14:28:14.053Z,66.24
2019-03-26T14:30:47.012Z,65.80
2019-03-26T14:33:16.941Z,64.32
2019-03-26T14:35:46.616Z,63.78
2019-03-26T14:38:16.363Z,64.67
2019-03-26T14:40:54.624Z,64.19
2019-03-26T14:43:17.787Z,64.69
2019-03-26T14:45:47.512Z,64.43
2019-03-26T14:48:17.196Z,64.31
2019-03-26T14:50:46.920Z,63.46
2019-03-26T14:53:16.834Z,63.49
2019-03-26T14:55:46.520Z,63.81
2019-03-26T14:58:16.211Z,64.12
2019-03-26T15:00:45.940Z,64.44
2019-03-26T15:03:15.684Z,65.69
2019-03-26T15:05:45.412Z,66.89
2019-03-26T15:08:15.141Z,66.76
2019-03-26T15:10:44.841Z,66.73
2019-03-26T15:13:14.746Z,66.87
2019-03-26T15:15:44.443Z,66.38
2019-03-26T15:18:14.236Z,65.61
2019-03-26T15:20:43.972Z,65.37
2019-03-26T15:23:13.679Z,64.29
2019-03-26T15:25:43.430Z,64.12
2019-03-26T15:28:13.257Z,62.95
2019-03-26T15:30:43.109Z,63.42
2019-03-26T15:33:12.909Z,63.51
2019-03-26T15:35:42.712Z,62.86
2019-03-26T15:38:12.441Z,63.10
2019-03-26T15:40:42.133Z,63.83
2019-03-26T15:43:11.834Z,64.06
2019-03-26T15:45:41.551Z,64.54
2019-03-26T15:48:11.247Z,64.63
2019-03-26T15:50:46.386Z,64.19
2019-03-26T15:53:16.785Z,63.66
2019-03-26T15:55:46.742Z,63.58
2019-03-26T15:58:16.522Z,63.45
2019-03-26T16:00:46.169Z,63.65
2019-03-26T16:03:15.925Z,63.25
2019-03-26T16:05:45.682Z,63.73
2019-03-26T16:08:15.416Z,63.80
2019-03-26T16:10:45.169Z,63.58
2019-03-26T16:13:15.004Z,63.32
2019-03-26T16:15:45.295Z,63.62
2019-03-26T16:18:15.031Z,63.84
2019-03-26T16:20:44.764Z,63.76
2019-03-26T16:23:14.638Z,64.29
2019-03-26T16:25:44.360Z,64.36
2019-03-26T16:28:14.077Z,64.57
2019-03-26T16:30:44.719Z,64.86
2019-03-26T16:33:14.435Z,64.60
2019-03-26T16:35:44.183Z,64.34
2019-03-26T16:38:13.890Z,64.71
2019-03-26T16:40:43.579Z,64.88
2019-03-26T16:43:13.374Z,64.85
2019-03-26T16:45:43.209Z,64.50
2019-03-26T16:48:12.914Z,64.61
2019-03-26T16:50:42.616Z,65.09
2019-03-26T16:53:12.504Z,64.70
2019-03-26T16:55:42.207Z,64.43
2019-03-26T16:58:11.895Z,64.41
2019-03-26T17:00:42.067Z,64.64
2019-03-26T17:03:12.253Z,64.78
2019-03-26T17:05:41.979Z,65.08
2019-03-26T17:08:11.772Z,65.00
2019-03-26T17:10:41.724Z,64.90
2019-03-26T17:13:11.475Z,65.19
2019-03-26T17:15:41.222Z,64.80
2019-03-26T17:18:10.945Z,64.80
2019-03-26T17:20:40.609Z,65.18
2019-03-26T17:23:10.909Z,65.07
2019-03-26T17:25:40.724Z,65.96
2019-03-26T17:28:10.454Z,65.52
2019-03-26T17:30:40.125Z,65.39
2019-03-26T17:33:09.976Z,65.95
2019-03-26T17:35:39.765Z,65.90
2019-03-26T17:38:09.575Z,65.69
2019-03-26T17:40:39.411Z,65.81
2019-03-26T17:43:09.130Z,66.01
2019-03-26T17:45:38.891Z,66.68
2019-03-26T17:48:08.674Z,66.14
2019-03-26T17:50:38.531Z,66.47
2019-03-26T17:53:08.330Z,66.47
2019-03-26T17:55:38.014Z,66.44
2019-03-26T17:58:07.838Z,66.39
2019-03-26T18:00:39.971Z,66.77
2019-03-26T18:03:09.714Z,66.93
2019-03-26T18:05:39.441Z,66.88
2019-03-26T18:08:09.187Z,67.24
2019-03-26T18:10:38.913Z,67.16
2019-03-26T18:13:08.619Z,67.44
2019-03-26T18:15:38.373Z,67.32
2019-03-26T18:18:08.077Z,67.46
2019-03-26T18:20:38.004Z,67.56
2019-03-26T18:23:07.725Z,67.80
2019-03-26T18:25:37.493Z,67.36
2019-03-26T18:28:07.335Z,67.15
2019-03-26T18:30:37.222Z,67.10
2019-03-26T18:33:06.946Z,67.05
2019-03-26T18:35:36.716Z,67.05
2019-03-26T18:38:06.979Z,67.39
2019-03-26T18:40:36.761Z,66.88
2019-03-26T18:43:06.530Z,67.05
2019-03-26T18:45:36.275Z,67.71
2019-03-26T18:48:06.518Z,67.57
2019-03-26T18:50:36.309Z,67.71
2019-03-26T18:53:06.243Z,67.73
2019-03-26T18:55:37.192Z,68.33
2019-03-26T18:58:07.074Z,68.40
2019-03-26T19:00:37.725Z,67.91
2019-03-26T19:03:09.167Z,68.00
2019-03-26T19:05:38.989Z,68.08
2019-03-26T19:08:08.952Z,68.20
2019-03-26T19:10:39.071Z,68.42
2019-03-26T19:13:19.083Z,68.05
2019-03-26T19:15:41.253Z,67.93
2019-03-26T19:18:11.424Z,68.01
2019-03-26T19:20:41.211Z,68.07
2019-03-26T19:23:10.985Z,68.18
2019-03-26T19:25:40.826Z,68.40
2019-03-26T19:28:11.706Z,68.42
2019-03-26T19:30:41.732Z,68.33
2019-03-26T19:33:11.529Z,68.61
2019-03-26T19:35:41.354Z,68.75
2019-03-26T19:38:11.502Z,68.77
2019-03-26T19:40:41.392Z,68.83
2019-03-26T19:43:11.787Z,69.11
2019-03-26T19:45:42.204Z,69.17
2019-03-26T19:48:12.274Z,69.17
2019-03-26T19:50:43.130Z,69.57
2019-03-26T19:53:13.054Z,70.01
2019-03-26T19:55:43.520Z,69.90
2019-03-26T19:58:13.515Z,70.67
2019-03-26T20:00:43.437Z,70.59
2019-03-26T20:03:13.883Z,70.67
2019-03-26T20:05:43.771Z,70.83
2019-03-26T20:08:14.042Z,70.98
2019-03-26T20:10:45.593Z,71.08
2019-03-26T20:13:24.181Z,71.46
2019-03-26T20:15:47.142Z,71.62
2019-03-26T20:18:18.245Z,71.66
2019-03-26T20:20:48.017Z,71.88
2019-03-26T20:23:18.120Z,71.94
2019-03-26T20:25:47.937Z,72.53
2019-03-26T20:28:18.422Z,72.65
2019-03-26T20:30:48.322Z,72.77
2019-03-26T20:33:18.261Z,72.66
2019-03-26T20:35:48.158Z,72.90
2019-03-26T20:38:17.735Z,72.93
2019-03-26T20:40:47.513Z,73.49
2019-03-26T20:43:17.348Z,73.68
2019-03-26T20:45:47.195Z,73.44
2019-03-26T20:48:17.337Z,73.73
2019-03-26T20:50:49.302Z,73.99
2019-03-26T20:53:19.072Z,74.45
2019-03-26T20:55:54.610Z,74.40
2019-03-26T20:58:21.890Z,74.93
2019-03-26T21:00:51.756Z,74.95
2019-03-26T21:03:21.532Z,74.94
2019-03-26T21:05:51.701Z,75.03
2019-03-26T21:08:21.533Z,75.16
2019-03-26T21:10:51.338Z,75.20
2019-03-26T21:13:21.372Z,75.35
2019-03-26T21:15:57.022Z,75.82
2019-03-26T21:18:22.747Z,75.70
2019-03-26T21:20:53.516Z,75.69
2019-03-26T21:23:23.292Z,75.73
2019-03-26T21:25:53.058Z,75.91
2019-03-26T21:28:22.818Z,75.96
2019-03-26T21:30:52.567Z,75.83
2019-03-26T21:33:22.341Z,76.11
2019-03-26T21:35:52.118Z,76.26
2019-03-26T21:38:21.875Z,76.69
2019-03-26T21:40:51.582Z,76.71
2019-03-26T21:43:21.461Z,77.40
2019-03-26T21:45:51.186Z,77.67
2019-03-26T21:48:21.240Z,77.87
2019-03-26T21:50:50.996Z,77.67
2019-03-26T21:53:20.702Z,77.99
2019-03-26T21:55:50.400Z,78.52
2019-03-26T21:58:20.169Z,78.50
2019-03-26T22:00:49.866Z,78.62
2019-03-26T22:03:19.672Z,78.03
2019-03-26T22:05:49.412Z,78.17
2019-03-26T22:08:19.124Z,78.23
2019-03-26T22:10:48.830Z,78.83
2019-03-26T22:13:18.567Z,79.06
2019-03-26T22:15:48.305Z,79.48
2019-03-26T22:18:18.055Z,79.09
2019-03-26T22:20:48.013Z,79.31
2019-03-26T22:23:17.703Z,79.24
2019-03-26T22:25:48.587Z,79.77
2019-03-26T22:28:18.344Z,79.96
2019-03-26T22:30:48.175Z,79.84
2019-03-26T22:33:17.901Z,79.80
2019-03-26T22:35:47.597Z,80.38
2019-03-26T22:38:17.318Z,80.72
2019-03-26T22:40:47.088Z,80.88
2019-03-26T22:43:16.910Z,80.89
2019-03-26T22:45:48.106Z,80.98
2019-03-26T22:48:17.839Z,81.17
2019-03-26T22:50:47.543Z,81.29
2019-03-26T22:53:17.356Z,81.51
2019-03-26T22:55:47.125Z,81.89
2019-03-26T22:58:16.948Z,81.98
2019-03-26T23:00:46.776Z,82.44
2019-03-26T23:03:16.573Z,82.50
2019-03-26T23:05:46.280Z,82.79
2019-03-26T23:08:16.150Z,83.07
2019-03-26T23:10:45.833Z,83.06
2019-03-26T23:13:15.601Z,83.08
2019-03-26T23:15:45.284Z,83.29
2019-03-26T23:18:14.988Z,83.56
2019-03-26T23:20:44.707Z,83.65
2019-03-26T23:23:14.407Z,83.96
2019-03-26T23:25:44.980Z,84.13
2019-03-26T23:28:14.676Z,84.12
2019-03-26T23:30:44.453Z,84.16
2019-03-26T23:33:14.459Z,84.17
2019-03-26T23:35:44.258Z,84.48
2019-03-26T23:38:14.106Z,84.58
2019-03-26T23:40:43.835Z,84.71
2019-03-26T23:43:13.573Z,84.92
2019-03-26T23:45:43.393Z,84.93
2019-03-26T23:48:13.081Z,85.11
2019-03-26T23:50:43.273Z,85.39
2019-03-26T23:53:13.101Z,85.32
2019-03-26T23:55:42.792Z,85.16
2019-03-26T23:58:12.540Z,85.63
